• Join FlightAware (Why Join?)
  • Login
  • US Flag 
12:11AM EDT


 

Airport Tracker/Info


-or-


 

Live Flight TrackerFlight Track Log ✈ GJS3707 ✈ 19-May-2013 ✈ KORD - KBOI

Flight Track Log - Related Links

Times and Time Zones

All times are in EDT time to prevent confusion due to time zone crossing. See the GJS3707 flight status page for this flight to view local times or setup timezone preferences in your user account.

Time Position Orientation Groundspeed Altitude Reporting Facility
EDT Latitude Longitude Course Direction KTS MPH feet Rate Location/Type
10:49AM 41.9667 -87.9500 270° West 176 203 2,000  Level Chicago TRACON
10:50AM 41.9667 -88.0333 270° West 221 254 3,900 2,100 Climbing Chicago TRACON
10:51AM 41.9608 -88.1556 266° West 244 281 7,100 2,040 Climbing Chicago Center
10:52AM 41.9668 -88.5510 270° West  Level FlightAware Approximate
10:52AM 41.9564 -88.2517 266° West 256 295 9,000  Level Chicago Center
10:53AM 41.9667 -88.7138 270° West  Level FlightAware Approximate
10:53AM 41.9653 -88.3828 275° West 292 336 11,300  Level Chicago Center
10:54AM 41.9668 -88.8765 270° West  Level FlightAware Approximate
10:54AM 41.9956 -88.4992 289° West 322 371 12,300  Level Chicago Center
10:55AM 42.0286 -88.6314 289° West 369 425 13,800 1,800 Climbing Chicago Center
10:56AM 42.0625 -88.7639 289° West 377 434 16,100 2,160 Climbing Chicago Center
10:58AM 42.1042 -88.9117 291° West 373 429 18,300 1,860 Climbing Chicago Center
10:59AM 42.1069 -89.0508 272° West 374 430 20,000 1,500 Climbing Chicago Center
11:00AM 42.1136 -89.1933 274° West 378 435 21,500 1,200 Climbing Chicago Center
11:01AM 42.1161 -89.3456 271° West 400 460 22,600 1,140 Climbing Chicago Center
11:02AM 42.1189 -89.4972 271° West 407 468 23,900 1,140 Climbing Chicago Center
11:03AM 42.1239 -89.6511 273° West 413 475 25,000 1,140 Climbing Chicago Center
11:04AM 42.1289 -89.8369 272° West 423 487 26,300 1,080 Climbing Chicago Center
11:05AM 42.1350 -89.9900 273° West 425 489 27,300 900 Climbing Chicago Center
11:06AM 42.1414 -90.1492 273° West 428 493 28,200 780 Climbing Chicago Center
11:07AM 42.1453 -90.3114 272° West 434 499 29,000 720 Climbing Chicago Center
11:08AM 42.1464 -90.4756 271° West 440 506 29,700 780 Climbing Chicago Center
11:09AM 42.1478 -90.6403 271° West 442 509 30,700 960 Climbing Chicago Center
11:10AM 42.1592 -90.8389 274° West 448 516 31,800 960 Climbing Chicago Center
11:11AM 42.2158 -90.9833 298° West 442 509 32,700 540 Climbing Chicago Center
11:12AM 42.2736 -91.1325 298° West 450 518 33,000 120 Climbing Chicago Center
11:13AM 42.3336 -91.2800 299° West 452 520 33,000  Level Chicago Center
11:14AM 42.3897 -91.4300 297° West 450 518 33,000  Level Chicago Center
11:15AM 42.4481 -91.5803 298° West 450 518 33,000  Level Chicago Center
11:16AM 42.5067 -91.7328 298° West 453 521 33,000  Level Chicago Center
11:17AM 42.5756 -91.9192 297° West 458 527 33,000  Level Chicago Center
11:18AM 42.6331 -92.0717 297° West 455 524 33,000  Level Chicago Center
11:18AM 42.6458 -92.1039 298° West 458 527 33,000  Level Minneapolis Center
11:19AM 42.7031 -92.2578 297° West 458 527 33,000  Level Minneapolis Center
11:20AM 42.7581 -92.4072 297° West 448 516 33,000  Level Minneapolis Center
11:21AM 42.8133 -92.5569 297° West 445 512 33,000  Level Minneapolis Center
11:22AM 42.8786 -92.7372 296° West 445 512 33,000  Level Minneapolis Center
11:23AM 42.9325 -92.8850 297° West 439 505 33,000  Level Minneapolis Center
11:24AM 42.9878 -93.0328 297° West 440 506 33,000  Level Minneapolis Center
11:26AM 43.0397 -93.1800 296° West 436 502 33,000 360 Level Minneapolis Center
11:27AM 43.0900 -93.3275 295° West 433 498 33,800 480 Climbing Minneapolis Center
11:28AM 43.1247 -93.4839 287° West 432 497 34,000 60 Climbing Minneapolis Center
11:29AM 43.1508 -93.6464 282° West 436 502 34,000  Level Minneapolis Center
11:30AM 43.1844 -93.8475 283° West 451 519 34,000  Level Minneapolis Center
11:31AM 43.2131 -94.0117 284° West 450 518 34,000  Level Minneapolis Center
11:32AM 43.2414 -94.1722 284° West 442 509 34,000  Level Minneapolis Center
11:33AM 43.2678 -94.3331 283° West 430 495 34,000 -480 Level Minneapolis Center
11:34AM 43.2942 -94.4944 283° West 434 499 33,100 -540 Descending Minneapolis Center
11:35AM 43.3217 -94.6569 283° West 438 504 33,000 -180 Descending Minneapolis Center
11:36AM 43.3483 -94.8214 283° West 441 507 32,800 -540 Descending Minneapolis Center
11:37AM 43.3811 -95.0200 283° West 446 513 32,000 -420 Descending Minneapolis Center
11:38AM 43.4078 -95.1847 283° West 443 510 32,000  Level Minneapolis Center
11:39AM 43.4344 -95.3500 283° West 443 510 32,000  Level Minneapolis Center
11:40AM 43.4606 -95.5200 282° West 453 521 32,000  Level Minneapolis Center
11:41AM 43.4872 -95.6919 282° West 457 526 32,000  Level Minneapolis Center
11:42AM 43.5139 -95.8642 282° West 458 527 32,000  Level Minneapolis Center
11:43AM 43.5408 -96.0392 282° West 465 535 32,000  Level Minneapolis Center
11:44AM 43.5664 -96.2139 281° West 464 534 32,000  Level Minneapolis Center
11:45AM 43.5939 -96.3908 282° West 468 539 32,000  Level Minneapolis Center
11:46AM 43.6197 -96.5681 281° West 469 540 32,000  Level Minneapolis Center
11:47AM 43.6494 -96.7783 281° West 464 534 32,000  Level Minneapolis Center
11:48AM 43.6642 -96.9536 277° West 460 529 32,000  Level Minneapolis Center
11:49AM 43.6769 -97.1294 276° West 459 528 32,000  Level Minneapolis Center
11:50AM 43.6911 -97.3058 276° West 461 531 32,000  Level Minneapolis Center
11:51AM 43.7036 -97.4803 276° West 459 528 32,000  Level Minneapolis Center
11:52AM 43.7139 -97.6208 276° West 461 531 32,000  Level Minneapolis Center
11:53AM 43.7292 -97.8333 276° West 464 534 32,000  Level Minneapolis Center
11:54AM 43.7414 -98.0089 276° West 461 531 32,000  Level Minneapolis Center
11:55AM 43.7536 -98.1847 276° West 461 531 32,000  Level Minneapolis Center
11:56AM 43.7672 -98.3964 275° West 463 533 32,000  Level Minneapolis Center
11:57AM 43.7792 -98.5719 275° West 460 529 32,000  Level Minneapolis Center
11:58AM 43.7911 -98.7575 275° West 460 529 32,000  Level Minneapolis Center
11:59AM 43.8017 -98.9328 275° West 457 526 32,000  Level Minneapolis Center
12:00PM 43.8119 -99.1072 275° West 455 524 32,000  Level Minneapolis Center
12:01PM 43.8217 -99.2803 275° West 452 520 32,000  Level Minneapolis Center
12:02PM 43.8317 -99.4533 275° West 450 518 32,000  Level Minneapolis Center
12:03PM 43.8411 -99.6269 274° West 450 518 32,000  Level Minneapolis Center
12:04PM 43.8511 -99.8000 275° West 451 519 32,000  Level Minneapolis Center
12:05PM 43.8597 -99.9742 274° West 450 518 32,000  Level Minneapolis Center
12:06PM 43.8683 -100.1478 274° West 451 519 32,000  Level Minneapolis Center
12:08PM 43.8761 -100.3208 274° West 450 518 32,000  Level Minneapolis Center
12:09PM 43.8861 -100.5328 274° West 455 524 32,000  Level Minneapolis Center
12:10PM 43.8958 -100.7128 274° West 462 532 32,000  Level Minneapolis Center
12:11PM 43.9031 -100.8922 273° West 464 534 32,000  Level Minneapolis Center
12:12PM 43.9097 -101.0708 273° West 464 534 32,000  Level Minneapolis Center
12:13PM 43.9175 -101.2517 273° West 466 536 32,000  Level Minneapolis Center
12:14PM 43.9228 -101.4297 272° West 464 534 32,000  Level Minneapolis Center
12:14PM 43.9289 -101.5392 274° West 468 539 32,000  Level Denver Center
12:15PM 43.9358 -101.7158 273° West 460 529 32,000  Level Denver Center
12:16PM 43.9406 -101.8847 272° West 445 512 32,000  Level Denver Center
12:17PM 43.9456 -102.0844 272° West 435 501 32,000  Level Denver Center
12:18PM 43.9514 -102.2556 273° West 439 505 32,000  Level Denver Center
12:19PM 43.9564 -102.4303 272° West 448 516 32,000  Level Denver Center
12:20PM 43.9642 -102.6075 274° West 456 525 32,000  Level Denver Center
12:21PM 43.9700 -102.7839 273° West 456 525 32,000  Level Denver Center
12:23PM 43.9753 -102.9778 272° West 456 525 32,000  Level Denver Center
12:24PM 43.9792 -103.1444 272° West 454 522 32,000  Level Denver Center
12:25PM 43.9842 -103.3408 272° West 455 524 32,000  Level Denver Center
12:26PM 43.9864 -103.5083 271° West 455 524 32,000  Level Denver Center
12:27PM 43.9894 -103.7053 271° West 459 528 32,000  Level Denver Center
12:28PM 43.9917 -103.8736 271° West 458 527 32,000  Level Denver Center
12:29PM 43.9944 -104.0706 271° West 457 526 32,000  Level Denver Center
12:30PM 43.9961 -104.2394 271° West 458 527 32,000  Level Denver Center
12:31PM 43.9983 -104.4347 271° West 455 524 32,000  Level Denver Center
12:32PM 44.0003 -104.6025 271° West 456 525 32,000  Level Denver Center
12:33PM 44.0025 -104.7989 271° West 457 526 32,000  Level Denver Center
12:34PM 44.0033 -104.9683 270° West 459 528 32,000  Level Denver Center
12:35PM 44.0042 -105.1642 270° West 456 525 32,000  Level Denver Center
12:36PM 44.0047 -105.3336 270° West 459 528 32,000  Level Denver Center
12:37PM 44.0044 -105.5306 270° West 458 527 32,000  Level Denver Center
12:38PM 44.0044 -105.6994 270° West 459 528 32,000  Level Denver Center
12:39PM 44.0047 -105.8678 270° West 457 526 32,000  Level Denver Center
12:40PM 44.0039 -106.0656 270° West 458 527 32,000  Level Denver Center
12:41PM 44.0022 -106.2319 269° West 454 522 32,000  Level Denver Center
12:42PM 44.0006 -106.4275 269° West 451 519 32,000  Level Denver Center
12:43PM 44.0058 -106.5928 273° West 449 517 32,000  Level Denver Center
12:44PM 44.0147 -106.8125 273° West 447 514 32,000  Level Denver Center
12:45PM 44.0206 -107.0003 273° West 449 517 32,000  Level Denver Center
12:46PM 44.0203 -107.0575 270° West 449 517 32,000  Level Salt Lake Center
12:47PM 44.0250 -107.1653 274° West 448 516 32,000  Level Denver Center
12:48PM 44.0322 -107.3572 273° West 445 512 32,000  Level Denver Center
12:48PM 44.0325 -107.4142 270° West 445 512 32,000  Level Salt Lake Center
12:49PM 44.0381 -107.5767 273° West 440 506 32,000  Level Salt Lake Center
12:50PM 44.0433 -107.7431 273° West 444 511 32,000  Level Salt Lake Center
12:51PM 44.0500 -107.9431 273° West 457 526 32,000  Level Salt Lake Center
12:52PM 44.0542 -108.1175 272° West 466 536 32,000  Level Salt Lake Center
12:53PM 44.0597 -108.3258 272° West 478 550 32,000  Level Salt Lake Center
12:54PM 44.0656 -108.5033 273° West 479 551 32,000  Level Salt Lake Center
12:55PM 44.0694 -108.6781 272° West 473 544 32,000  Level Salt Lake Center
12:56PM 44.0736 -108.8819 272° West 471 542 32,000  Level Salt Lake Center
12:57PM 44.0769 -109.0558 272° West 470 541 32,000  Level Salt Lake Center
12:58PM 44.0800 -109.2572 271° West 468 539 32,000  Level Salt Lake Center
12:59PM 44.0828 -109.4303 271° West 468 539 32,000  Level Salt Lake Center
01:00PM 44.0842 -109.6039 271° West 463 533 32,000  Level Salt Lake Center
01:01PM 44.0878 -109.8042 272° West 464 534 32,000  Level Salt Lake Center
01:02PM 44.0883 -109.9736 270° West 460 529 32,000  Level Salt Lake Center
01:03PM 44.0914 -110.1425 272° West 457 526 32,000  Level Salt Lake Center
01:04PM 44.0922 -110.3394 270° West 456 525 32,000  Level Salt Lake Center
01:05PM 44.0942 -110.5078 271° West 456 525 32,000  Level Salt Lake Center
01:06PM 44.0933 -110.7067 270° West 460 529 32,000  Level Salt Lake Center
01:07PM 44.0950 -110.8775 271° West 462 532 32,000  Level Salt Lake Center
01:08PM 44.0947 -111.0497 270° West 464 534 32,000  Level Salt Lake Center
01:09PM 44.0944 -111.2519 270° West 466 536 32,000  Level Salt Lake Center
01:10PM 44.0947 -111.4272 270° West 470 541 32,000  Level Salt Lake Center
01:11PM 44.0944 -111.6342 270° West 475 547 32,000  Level Salt Lake Center
01:12PM 44.0936 -111.8097 270° West 473 544 32,000  Level Salt Lake Center
01:13PM 44.0928 -111.9831 270° West 469 540 32,000  Level Salt Lake Center
01:15PM 44.0881 -112.1831 268° West 463 533 32,000  Level Salt Lake Center
01:16PM 44.0722 -112.3531 263° West 464 534 32,000  Level Salt Lake Center
01:17PM 44.0533 -112.5228 261° West 465 535 32,000  Level Salt Lake Center
01:18PM 44.0319 -112.7197 261° West 463 533 32,000  Level Salt Lake Center
01:19PM 44.0092 -112.8858 259° West 458 527 32,000  Level Salt Lake Center
01:20PM 43.9872 -113.0778 261° West 451 519 32,000  Level Salt Lake Center
01:21PM 43.9661 -113.2392 260° West 445 512 32,000  Level Salt Lake Center
01:22PM 43.9478 -113.3994 261° West 440 506 32,000  Level Salt Lake Center
01:23PM 43.9244 -113.5911 260° West 452 520 32,000  Level Salt Lake Center
01:24PM 43.9056 -113.7531 261° West 446 513 32,000  Level Salt Lake Center
01:25PM 43.8822 -113.9214 259° West 446 513 32,000  Level Salt Lake Center
01:26PM 43.8592 -114.1094 260° West 443 510 32,000 -480 Level Salt Lake Center
01:27PM 43.8369 -114.2706 259° West 444 511 31,100 -1,500 Descending Salt Lake Center
01:28PM 43.8144 -114.4569 261° West 438 504 28,900 -2,220 Descending Salt Lake Center
01:29PM 43.7933 -114.6125 259° West 430 495 26,600 -2,280 Descending Salt Lake Center
01:30PM 43.7711 -114.7683 259° West 429 494 24,300 -2,460 Descending Salt Lake Center
01:31PM 43.7478 -114.9392 259° West 403 464 21,600 -2,460 Descending Salt Lake Center
01:32PM 43.7283 -115.0808 259° West 391 450 19,300 -2,340 Descending Salt Lake Center
01:33PM 43.7069 -115.2356 259° West 368 423 16,900 -2,040 Descending Salt Lake Center
01:34PM 43.6889 -115.3586 259° West 345 397 15,200 -1,500 Descending Salt Lake Center
01:35PM 43.6542 -115.4864 249° West 332 382 13,900 -1,500 Descending Salt Lake Center
01:36PM 43.6244 -115.5989 250° West 300 345 12,200 -1,860 Descending Salt Lake Center
01:37PM 43.5906 -115.7072 247° West 296 341 10,200 -1,740 Descending Salt Lake Center
01:38PM 43.5583 -115.8058 246° West 294 338 8,700 -1,260 Descending Salt Lake Center
01:39PM 43.5039 -115.8844 226° Southwest 271 312 7,700 -960 Descending Salt Lake Center
01:40PM 43.4758 -115.9589 243° Southwest 217 250 6,800 -1,020 Descending Salt Lake Center
01:41PM 43.4956 -116.0244 293° West 178 205 5,700 -1,080 Descending Salt Lake Center
01:42PM 43.5167 -116.0864 295° West 172 198 4,600 -1,080 Descending Salt Lake Center